createdAt,value
2019-03-28T00:01:20.274Z,103451.19
2019-03-28T00:03:52.628Z,103448.87
2019-03-28T00:06:25.233Z,103451.27
2019-03-28T00:08:57.470Z,103453.23
2019-03-28T00:11:29.744Z,103457.11
2019-03-28T00:14:02.019Z,103449.64
2019-03-28T00:16:34.413Z,103446.44
2019-03-28T00:19:06.491Z,103445.95
2019-03-28T00:21:39.032Z,103449.69
2019-03-28T00:24:11.335Z,103442.84
2019-03-28T00:26:43.579Z,103444.36
2019-03-28T00:29:16.074Z,103438.84
2019-03-28T00:31:48.377Z,103448.70
2019-03-28T00:34:21.132Z,103453.01
2019-03-28T00:36:53.401Z,103454.88
2019-03-28T00:39:25.642Z,103456.25
2019-03-28T00:41:57.958Z,103455.58
2019-03-28T00:44:30.408Z,103454.70
2019-03-28T00:47:02.636Z,103448.27
2019-03-28T00:49:34.898Z,103451.27
2019-03-28T00:52:07.233Z,103452.05
2019-03-28T00:54:39.467Z,103445.54
2019-03-28T00:57:11.744Z,103446.09
2019-03-28T00:59:44.064Z,103448.77
2019-03-28T01:02:16.332Z,103445.39
2019-03-28T01:04:48.582Z,103441.35
2019-03-28T01:07:20.955Z,103442.94
2019-03-28T01:09:53.479Z,103441.98
2019-03-28T01:12:25.728Z,103437.61
2019-03-28T01:14:58.178Z,103437.91
2019-03-28T01:17:30.435Z,103441.03
2019-03-28T01:20:02.697Z,103437.61
2019-03-28T01:22:35.325Z,103439.77
2019-03-28T01:25:07.584Z,103442.02
2019-03-28T01:27:39.882Z,103442.55
2019-03-28T01:30:12.304Z,103437.16
2019-03-28T01:32:44.592Z,103445.61
2019-03-28T01:35:16.891Z,103447.92
2019-03-28T01:37:48.987Z,103439.72
2019-03-28T01:40:21.412Z,103439.84
2019-03-28T01:42:53.666Z,103441.80
2019-03-28T01:45:25.985Z,103443.79
2019-03-28T01:47:58.459Z,103445.54
2019-03-28T01:50:30.887Z,103444.14
2019-03-28T01:53:03.218Z,103437.74
2019-03-28T01:55:35.494Z,103432.96
2019-03-28T01:58:07.761Z,103438.56
2019-03-28T02:00:40.126Z,103434.95
2019-03-28T02:03:12.395Z,103438.33
2019-03-28T02:05:44.680Z,103431.44
2019-03-28T02:08:18.112Z,103431.89
2019-03-28T02:10:50.612Z,103432.67
2019-03-28T02:13:25.439Z,103434.59
2019-03-28T02:15:58.263Z,103434.33
2019-03-28T02:18:30.498Z,103431.56
2019-03-28T02:21:02.735Z,103431.27
2019-03-28T02:23:35.165Z,103434.56
2019-03-28T02:26:07.423Z,103434.33
2019-03-28T02:28:39.719Z,103426.39
2019-03-28T02:31:12.235Z,103430.27
2019-03-28T02:33:44.630Z,103433.74
2019-03-28T02:36:16.837Z,103428.44
2019-03-28T02:38:49.199Z,103425.22
2019-03-28T02:41:21.542Z,103423.05
2019-03-28T02:43:53.870Z,103428.25
2019-03-28T02:46:26.182Z,103426.56
2019-03-28T02:48:58.557Z,103421.94
2019-03-28T02:51:30.905Z,103422.72
2019-03-28T02:54:03.231Z,103424.31
2019-03-28T02:56:35.536Z,103426.09
2019-03-28T02:59:07.772Z,103429.05
2019-03-28T03:01:40.615Z,103423.46
2019-03-28T03:04:13.280Z,103418.81
2019-03-28T03:06:45.619Z,103413.25
2019-03-28T03:09:17.805Z,103418.13
2019-03-28T03:11:50.818Z,103423.27
2019-03-28T03:14:23.071Z,103418.23
2019-03-28T03:16:55.323Z,103415.86
2019-03-28T03:19:27.546Z,103419.98
2019-03-28T03:21:59.817Z,103425.42
2019-03-28T03:24:32.081Z,103420.05
2019-03-28T03:27:04.359Z,103422.52
2019-03-28T03:29:36.599Z,103419.69
2019-03-28T03:32:08.856Z,103419.30
2019-03-28T03:34:41.146Z,103424.12
2019-03-28T03:37:13.815Z,103419.08
2019-03-28T03:39:46.196Z,103420.25
2019-03-28T03:42:19.617Z,103421.16
2019-03-28T03:44:51.959Z,103419.92
2019-03-28T03:47:24.211Z,103423.59
2019-03-28T03:49:56.758Z,103429.45
2019-03-28T03:52:29.111Z,103428.97
2019-03-28T03:55:01.504Z,103419.86
2019-03-28T03:57:33.961Z,103425.45
2019-03-28T04:00:06.481Z,103427.53
2019-03-28T04:02:38.903Z,103430.30
2019-03-28T04:05:11.179Z,103429.38
2019-03-28T04:07:43.702Z,103429.91
2019-03-28T04:10:16.038Z,103428.08
2019-03-28T04:12:48.294Z,103430.68
2019-03-28T04:15:20.562Z,103434.88
2019-03-28T04:17:52.798Z,103431.98
2019-03-28T04:20:25.353Z,103439.63
2019-03-28T04:22:57.562Z,103436.34
2019-03-28T04:25:29.834Z,103440.61
2019-03-28T04:28:02.097Z,103440.22
2019-03-28T04:30:34.360Z,103444.13
2019-03-28T04:33:06.614Z,103441.23
2019-03-28T04:35:38.869Z,103443.80
2019-03-28T04:38:11.125Z,103449.37
2019-03-28T04:40:43.396Z,103438.14
2019-03-28T04:43:15.661Z,103437.09
2019-03-28T04:45:47.916Z,103436.28
2019-03-28T04:48:20.184Z,103439.54
2019-03-28T04:50:52.684Z,103435.73
2019-03-28T04:53:25.134Z,103439.47
2019-03-28T04:55:57.668Z,103442.37
2019-03-28T04:58:43.446Z,103447.18
2019-03-28T05:01:04.802Z,103451.19
2019-03-28T05:03:37.159Z,103447.64
2019-03-28T05:06:09.459Z,103442.36
2019-03-28T05:08:44.041Z,103442.71
2019-03-28T05:11:16.311Z,103447.66
2019-03-28T05:13:48.641Z,103447.75
2019-03-28T05:16:20.975Z,103441.86
2019-03-28T05:18:53.283Z,103442.89
2019-03-28T05:21:25.765Z,103444.20
2019-03-28T05:23:58.207Z,103450.58
2019-03-28T05:26:30.722Z,103451.79
2019-03-28T05:29:03.140Z,103450.31
2019-03-28T05:31:35.388Z,103452.63
2019-03-28T05:34:08.361Z,103444.94
2019-03-28T05:36:40.618Z,103449.02
2019-03-28T05:39:12.961Z,103457.58
2019-03-28T05:41:45.251Z,103458.93
2019-03-28T05:44:17.787Z,103455.50
2019-03-28T05:46:50.350Z,103450.30
2019-03-28T05:49:22.714Z,103451.20
2019-03-28T05:51:55.177Z,103456.16
2019-03-28T05:57:26.872Z,103455.56
2019-03-28T05:59:59.186Z,103460.89
2019-03-28T06:02:31.917Z,103459.55
2019-03-28T06:05:04.230Z,103471.81
2019-03-28T06:07:36.764Z,103473.85
2019-03-28T06:10:10.362Z,103469.72
2019-03-28T06:12:42.708Z,103471.69
2019-03-28T06:15:15.224Z,103473.03
2019-03-28T06:17:47.804Z,103479.50
2019-03-28T06:20:20.187Z,103479.38
2019-03-28T06:22:52.862Z,103480.41
2019-03-28T06:25:25.507Z,103486.02
2019-03-28T06:27:59.296Z,103491.10
2019-03-28T06:31:19.522Z,103490.31
2019-03-28T06:33:15.151Z,103485.23
2019-03-28T06:35:44.946Z,103495.09
2019-03-28T06:38:17.654Z,103495.18
2019-03-28T06:40:51.152Z,103496.09
2019-03-28T06:43:23.499Z,103498.66
2019-03-28T06:45:58.264Z,103505.17
2019-03-28T06:48:30.702Z,103511.69
2019-03-28T06:51:03.195Z,103509.04
2019-03-28T06:53:35.463Z,103507.05
2019-03-28T06:56:07.760Z,103507.52
2019-03-28T06:58:40.073Z,103508.30
2019-03-28T07:01:13.173Z,103509.73
2019-03-28T07:03:47.355Z,103517.84
2019-03-28T07:06:20.061Z,103523.46
2019-03-28T07:08:52.774Z,103524.22
2019-03-28T07:11:25.543Z,103519.73
2019-03-28T07:13:58.323Z,103519.28
2019-03-28T07:16:30.568Z,103518.91
2019-03-28T07:19:02.937Z,103521.21
2019-03-28T07:21:35.391Z,103518.97
2019-03-28T07:24:07.749Z,103520.91
2019-03-28T07:26:40.230Z,103516.56
2019-03-28T07:29:12.675Z,103520.32
2019-03-28T07:31:44.924Z,103521.95
2019-03-28T07:34:17.275Z,103518.67
2019-03-28T07:36:51.570Z,103515.73
2019-03-28T07:39:23.826Z,103510.02
2019-03-28T07:41:56.046Z,103523.39
2019-03-28T07:44:28.673Z,103522.88
2019-03-28T07:47:01.141Z,103514.63
2019-03-28T07:49:37.488Z,103508.71
2019-03-28T07:52:09.842Z,103509.44
2019-03-28T07:54:42.843Z,103512.45
2019-03-28T07:57:15.440Z,103517.99
2019-03-28T07:59:47.940Z,103521.13
2019-03-28T08:02:20.234Z,103523.66
2019-03-28T08:04:53.149Z,103524.39
2019-03-28T08:07:25.324Z,103527.00
2019-03-28T08:09:58.693Z,103520.97
2019-03-28T08:12:31.430Z,103523.46
2019-03-28T08:15:03.984Z,103524.26
2019-03-28T08:17:36.686Z,103526.20
2019-03-28T08:20:09.090Z,103520.12
2019-03-28T08:22:41.448Z,103526.03
2019-03-28T08:25:14.035Z,103523.81
2019-03-28T08:27:46.415Z,103524.53
2019-03-28T08:30:19.559Z,103521.13
2019-03-28T08:32:52.360Z,103524.64
2019-03-28T08:35:24.657Z,103532.48
2019-03-28T08:37:57.079Z,103525.78
2019-03-28T08:40:29.453Z,103529.81
2019-03-28T08:43:01.825Z,103529.22
2019-03-28T08:45:34.501Z,103534.66
2019-03-28T08:48:07.316Z,103528.81
2019-03-28T08:50:40.155Z,103530.81
2019-03-28T08:53:12.532Z,103531.70
2019-03-28T08:55:44.815Z,103541.27
2019-03-28T08:58:17.214Z,103541.27
2019-03-28T09:00:52.715Z,103537.14
2019-03-28T09:03:23.694Z,103533.62
2019-03-28T09:05:56.245Z,103534.59
2019-03-28T09:08:29.852Z,103543.31
2019-03-28T09:11:03.341Z,103539.67
2019-03-28T09:13:35.707Z,103544.11
2019-03-28T09:16:07.965Z,103543.19
2019-03-28T09:18:40.310Z,103546.98
2019-03-28T09:21:12.692Z,103543.84
2019-03-28T09:23:45.101Z,103543.36
2019-03-28T09:26:17.755Z,103542.34
2019-03-28T09:28:49.988Z,103546.62
2019-03-28T09:31:22.534Z,103545.47
2019-03-28T09:33:54.884Z,103547.50
2019-03-28T09:36:27.257Z,103538.23
2019-03-28T09:39:03.801Z,103548.49
2019-03-28T09:41:36.231Z,103543.67
2019-03-28T09:44:08.569Z,103544.87
2019-03-28T09:46:40.851Z,103545.20
2019-03-28T09:49:13.149Z,103548.11
2019-03-28T09:51:45.475Z,103545.20
2019-03-28T09:54:17.782Z,103541.53
2019-03-28T09:56:50.241Z,103540.92
2019-03-28T09:59:22.534Z,103538.97
2019-03-28T10:01:54.994Z,103535.67
2019-03-28T10:04:27.546Z,103532.55
2019-03-28T10:07:00.026Z,103542.48
2019-03-28T10:09:32.373Z,103529.61
2019-03-28T10:12:04.698Z,103533.73
2019-03-28T10:14:37.181Z,103527.93
2019-03-28T10:17:09.566Z,103533.28
2019-03-28T10:19:41.927Z,103535.68
2019-03-28T10:22:14.353Z,103537.11
2019-03-28T10:24:46.658Z,103539.02
2019-03-28T10:27:19.461Z,103536.64
2019-03-28T10:29:51.970Z,103542.25
2019-03-28T10:32:24.251Z,103547.98
2019-03-28T10:34:56.622Z,103541.41
2019-03-28T10:37:29.190Z,103541.22
2019-03-28T10:40:01.481Z,103549.66
2019-03-28T10:42:33.977Z,103549.28
2019-03-28T10:45:06.751Z,103553.05
2019-03-28T10:47:40.661Z,103551.38
2019-03-28T10:50:12.985Z,103549.87
2019-03-28T10:52:45.303Z,103548.53
2019-03-28T10:55:17.677Z,103551.21
2019-03-28T10:57:50.216Z,103545.77
2019-03-28T11:00:24.412Z,103546.24
2019-03-28T11:02:56.600Z,103539.92
2019-03-28T11:05:28.996Z,103537.48
2019-03-28T11:08:01.322Z,103543.64
2019-03-28T11:10:33.690Z,103544.50
2019-03-28T11:13:09.294Z,103540.91
2019-03-28T11:15:40.236Z,103546.95
2019-03-28T11:18:13.223Z,103546.09
2019-03-28T11:20:47.629Z,103544.47
2019-03-28T11:23:19.855Z,103542.35
2019-03-28T11:25:52.103Z,103549.41
2019-03-28T11:28:24.488Z,103548.05
2019-03-28T11:30:56.784Z,103545.16
2019-03-28T11:33:29.068Z,103553.98
2019-03-28T11:36:01.314Z,103543.56
2019-03-28T11:38:33.651Z,103548.39
2019-03-28T11:41:06.044Z,103547.03
2019-03-28T11:43:38.417Z,103552.38
2019-03-28T11:46:10.698Z,103554.92
2019-03-28T11:48:42.955Z,103544.86
2019-03-28T11:51:15.322Z,103544.98
2019-03-28T11:53:47.823Z,103545.59
2019-03-28T11:56:20.253Z,103541.16
2019-03-28T11:58:52.567Z,103535.22
2019-03-28T12:01:24.834Z,103539.95
2019-03-28T12:03:57.145Z,103539.84
2019-03-28T12:06:29.523Z,103533.42
2019-03-28T12:09:01.844Z,103543.27
2019-03-28T12:11:35.744Z,103540.64
2019-03-28T12:14:08.065Z,103535.20
2019-03-28T12:16:40.470Z,103538.56
2019-03-28T12:19:12.964Z,103540.04
2019-03-28T12:21:47.454Z,103533.03
2019-03-28T12:24:19.779Z,103524.06
2019-03-28T12:26:52.270Z,103529.78
2019-03-28T12:29:24.563Z,103524.55
2019-03-28T12:31:56.874Z,103521.92
2019-03-28T12:34:30.119Z,103518.63
2019-03-28T12:37:02.431Z,103518.74
2019-03-28T12:39:34.696Z,103517.43
2019-03-28T12:44:39.930Z,103510.27
2019-03-28T12:47:12.157Z,103516.66
2019-03-28T12:49:44.531Z,103510.89
2019-03-28T12:52:16.872Z,103517.25
2019-03-28T12:54:49.233Z,103515.31
2019-03-28T12:57:21.622Z,103510.31
2019-03-28T12:59:54.900Z,103510.07
2019-03-28T13:02:31.568Z,103507.27
2019-03-28T13:05:01.417Z,103507.58
2019-03-28T13:07:33.973Z,103502.83
2019-03-28T13:10:06.345Z,103502.38
2019-03-28T13:12:38.643Z,103499.22
2019-03-28T13:15:11.081Z,103501.23
2019-03-28T13:17:43.562Z,103497.58
2019-03-28T13:20:15.922Z,103485.92
2019-03-28T13:22:48.270Z,103488.29
2019-03-28T13:25:20.826Z,103486.23
2019-03-28T13:27:53.277Z,103487.72
2019-03-28T13:30:25.721Z,103487.59
2019-03-28T13:32:58.160Z,103488.38
2019-03-28T13:35:35.076Z,103478.50
2019-03-28T13:38:06.823Z,103478.62
2019-03-28T13:40:40.226Z,103490.73
2019-03-28T13:43:14.865Z,103486.45
2019-03-28T13:45:47.087Z,103483.32
2019-03-28T13:48:19.422Z,103488.98
2019-03-28T13:50:54.607Z,103488.47
2019-03-28T13:53:38.372Z,103476.08
2019-03-28T13:55:59.424Z,103479.64
2019-03-28T13:58:32.915Z,103478.90
2019-03-28T14:01:05.248Z,103478.73
2019-03-28T14:03:37.644Z,103478.70
2019-03-28T14:06:10.417Z,103477.83
2019-03-28T14:08:42.703Z,103477.92
2019-03-28T14:11:15.147Z,103473.14
2019-03-28T14:13:47.613Z,103479.38
2019-03-28T14:16:20.193Z,103476.83
2019-03-28T14:18:52.443Z,103471.30
2019-03-28T14:21:25.058Z,103466.49
2019-03-28T14:23:57.382Z,103467.73
2019-03-28T14:26:29.656Z,103464.08
2019-03-28T14:29:01.902Z,103459.27
2019-03-28T14:31:36.285Z,103462.31
2019-03-28T14:34:08.632Z,103461.17
2019-03-28T14:36:40.867Z,103460.72
2019-03-28T14:39:13.266Z,103457.19
2019-03-28T14:41:46.542Z,103456.16
2019-03-28T14:44:20.955Z,103454.73
2019-03-28T14:46:53.323Z,103451.14
2019-03-28T14:49:25.561Z,103451.62
2019-03-28T14:51:57.813Z,103457.64
2019-03-28T14:54:30.027Z,103455.36
2019-03-28T14:57:02.295Z,103451.79
2019-03-28T14:59:34.907Z,103455.80
2019-03-28T15:02:07.230Z,103451.39
2019-03-28T15:04:39.700Z,103450.78
2019-03-28T15:07:12.088Z,103448.60
2019-03-28T15:09:44.872Z,103449.03
2019-03-28T15:12:17.153Z,103446.06
2019-03-28T15:14:49.529Z,103444.94
2019-03-28T15:17:21.873Z,103439.20
2019-03-28T15:19:54.205Z,103435.25
2019-03-28T15:22:26.801Z,103444.01
2019-03-28T15:24:59.101Z,103443.10
2019-03-28T15:27:31.549Z,103439.50
2019-03-28T15:30:05.068Z,103436.86
2019-03-28T15:32:37.492Z,103431.48
2019-03-28T15:35:09.537Z,103429.47
2019-03-28T15:37:41.954Z,103430.55
2019-03-28T15:40:14.257Z,103430.25
2019-03-28T15:42:46.691Z,103428.49
2019-03-28T15:45:19.361Z,103429.87
2019-03-28T15:47:52.227Z,103433.14
2019-03-28T15:50:25.046Z,103421.57
2019-03-28T15:52:57.570Z,103420.05
2019-03-28T15:55:30.056Z,103425.50
2019-03-28T15:58:02.491Z,103416.80
2019-03-28T16:00:34.948Z,103415.02
2019-03-28T16:03:08.789Z,103410.17
2019-03-28T16:05:41.103Z,103412.19
2019-03-28T16:08:13.821Z,103415.18
2019-03-28T16:10:46.083Z,103417.94
2019-03-28T16:13:18.766Z,103415.38
2019-03-28T16:15:51.256Z,103418.68
2019-03-28T16:18:23.751Z,103417.44
2019-03-28T16:20:56.250Z,103416.63
2019-03-28T16:23:29.475Z,103413.34
2019-03-28T16:26:02.219Z,103413.91
2019-03-28T16:28:35.347Z,103409.40
2019-03-28T16:31:14.683Z,103410.88
2019-03-28T16:33:47.916Z,103407.65
2019-03-28T16:36:20.275Z,103404.80
2019-03-28T16:38:52.552Z,103407.82
2019-03-28T16:41:24.787Z,103406.47
2019-03-28T16:43:57.668Z,103400.31
2019-03-28T16:46:29.812Z,103403.87
2019-03-28T16:49:02.138Z,103404.70
2019-03-28T16:51:35.552Z,103397.31
2019-03-28T16:54:07.802Z,103397.42
2019-03-28T16:56:40.350Z,103395.70
2019-03-28T16:59:14.881Z,103393.89
2019-03-28T17:01:48.022Z,103400.09
2019-03-28T17:04:21.340Z,103397.13
2019-03-28T17:06:54.365Z,103398.03
2019-03-28T17:09:26.680Z,103392.84
2019-03-28T17:12:00.133Z,103394.55
2019-03-28T17:14:32.595Z,103393.98
2019-03-28T17:17:05.027Z,103391.25
2019-03-28T17:19:37.541Z,103392.49
2019-03-28T17:22:09.913Z,103394.61
2019-03-28T17:24:43.256Z,103399.89
2019-03-28T17:27:15.925Z,103400.85
2019-03-28T17:29:48.322Z,103399.16
2019-03-28T17:32:20.669Z,103399.37
2019-03-28T17:34:53.008Z,103398.80
2019-03-28T17:37:25.899Z,103394.36
2019-03-28T17:39:58.398Z,103396.51
2019-03-28T17:42:30.886Z,103395.42
2019-03-28T17:45:03.534Z,103387.91
2019-03-28T17:47:37.171Z,103398.45
2019-03-28T17:50:09.764Z,103400.27
2019-03-28T17:52:49.191Z,103392.28
2019-03-28T17:55:21.975Z,103394.66
2019-03-28T17:57:54.153Z,103395.27
2019-03-28T18:00:28.051Z,103399.62
2019-03-28T18:03:09.206Z,103401.92
2019-03-28T18:05:35.398Z,103406.12
2019-03-28T18:08:08.383Z,103399.46
2019-03-28T18:10:40.930Z,103399.92
2019-03-28T18:13:14.535Z,103409.42
2019-03-28T18:15:47.769Z,103405.48
2019-03-28T18:18:20.700Z,103407.34
2019-03-28T18:20:53.337Z,103408.02
2019-03-28T18:23:26.006Z,103411.00
2019-03-28T18:25:59.627Z,103412.91
2019-03-28T18:28:32.694Z,103414.57
2019-03-28T18:31:05.098Z,103410.23
2019-03-28T18:33:37.601Z,103410.72
2019-03-28T18:36:10.065Z,103413.16
2019-03-28T18:38:42.560Z,103414.30
2019-03-28T18:41:15.301Z,103414.27
2019-03-28T18:43:47.856Z,103409.02
2019-03-28T18:46:20.543Z,103409.45
2019-03-28T18:48:53.472Z,103410.84
2019-03-28T18:51:26.099Z,103409.71
2019-03-28T18:53:58.691Z,103407.62
2019-03-28T18:56:31.348Z,103407.62
2019-03-28T18:59:07.262Z,103408.19
2019-03-28T19:01:40.081Z,103413.05
2019-03-28T19:04:12.566Z,103418.04
2019-03-28T19:06:44.977Z,103412.31
2019-03-28T19:09:17.313Z,103413.00
2019-03-28T19:11:50.057Z,103414.17
2019-03-28T19:14:22.418Z,103418.04
2019-03-28T19:16:55.334Z,103418.14
2019-03-28T19:19:38.812Z,103409.11
2019-03-28T19:22:01.936Z,103413.61
2019-03-28T19:24:34.071Z,103413.72
2019-03-28T19:27:06.388Z,103413.00
2019-03-28T19:29:38.627Z,103414.61
2019-03-28T19:32:10.945Z,103414.66
2019-03-28T19:34:43.323Z,103415.00
2019-03-28T19:37:16.693Z,103423.97
2019-03-28T19:39:48.771Z,103423.80
2019-03-28T19:42:22.581Z,103409.58
2019-03-28T19:44:55.005Z,103418.05
2019-03-28T19:47:28.729Z,103419.24
2019-03-28T19:50:03.376Z,103413.51
2019-03-28T19:52:35.724Z,103408.99
2019-03-28T19:55:09.363Z,103412.83
2019-03-28T19:57:43.257Z,103406.37
2019-03-28T20:00:15.600Z,103417.08
2019-03-28T20:02:47.930Z,103418.38
2019-03-28T20:05:20.215Z,103423.70
2019-03-28T20:07:54.361Z,103420.16
2019-03-28T20:10:26.582Z,103420.61
2019-03-28T20:12:59.993Z,103415.89
2019-03-28T20:15:32.299Z,103417.57
2019-03-28T20:18:04.527Z,103422.95
2019-03-28T20:20:36.804Z,103424.64
2019-03-28T20:23:09.157Z,103435.52
2019-03-28T20:25:42.950Z,103433.53
2019-03-28T20:28:16.263Z,103430.73
2019-03-28T20:30:48.814Z,103434.84
2019-03-28T20:33:21.222Z,103436.02
2019-03-28T20:36:06.316Z,103442.56
2019-03-28T20:38:27.747Z,103440.85
2019-03-28T20:41:00.090Z,103437.58
2019-03-28T20:43:32.702Z,103435.23
2019-03-28T20:46:05.386Z,103438.91
2019-03-28T20:48:38.942Z,103447.05
2019-03-28T20:51:11.507Z,103440.25
2019-03-28T20:53:43.842Z,103442.79
2019-03-28T20:56:16.235Z,103439.70
2019-03-28T20:58:48.577Z,103438.84
2019-03-28T21:01:20.844Z,103444.83
2019-03-28T21:03:53.128Z,103444.99
2019-03-28T21:06:26.456Z,103445.54
2019-03-28T21:09:00.251Z,103441.70
2019-03-28T21:11:32.942Z,103441.47
2019-03-28T21:14:05.462Z,103445.91
2019-03-28T21:16:38.168Z,103451.27
2019-03-28T21:19:10.897Z,103452.73
2019-03-28T21:21:44.583Z,103451.97
2019-03-28T21:24:18.227Z,103455.11
2019-03-28T21:26:50.870Z,103454.88
2019-03-28T21:29:23.189Z,103453.73
2019-03-28T21:31:57.893Z,103455.54
2019-03-28T21:34:30.447Z,103459.59
2019-03-28T21:37:06.245Z,103459.74
2019-03-28T21:39:39.887Z,103460.41
2019-03-28T21:42:12.129Z,103454.59
2019-03-28T21:44:44.839Z,103461.73
2019-03-28T21:47:17.307Z,103451.48
2019-03-28T21:49:49.675Z,103449.80
2019-03-28T21:52:22.384Z,103457.49
2019-03-28T21:54:54.970Z,103452.93
2019-03-28T21:57:27.400Z,103448.12
2019-03-28T21:59:59.879Z,103441.28
2019-03-28T22:02:32.226Z,103441.44
2019-03-28T22:05:04.637Z,103441.58
2019-03-28T22:07:36.988Z,103439.91
2019-03-28T22:10:09.538Z,103433.55
2019-03-28T22:12:42.091Z,103433.42
2019-03-28T22:15:14.377Z,103437.73
2019-03-28T22:17:46.687Z,103432.02
2019-03-28T22:20:19.180Z,103435.78
2019-03-28T22:22:51.531Z,103431.53
2019-03-28T22:25:23.839Z,103433.86
2019-03-28T22:27:56.206Z,103437.02
2019-03-28T22:30:28.469Z,103431.06
2019-03-28T22:33:01.155Z,103436.64
2019-03-28T22:35:33.512Z,103430.81
2019-03-28T22:38:06.295Z,103431.34
2019-03-28T22:40:38.792Z,103425.91
2019-03-28T22:43:11.572Z,103424.33
2019-03-28T22:45:45.036Z,103426.05
2019-03-28T22:48:17.859Z,103419.42
2019-03-28T22:50:50.380Z,103419.56
2019-03-28T22:53:22.998Z,103418.80
2019-03-28T22:55:55.261Z,103418.16
2019-03-28T22:58:27.539Z,103420.23
2019-03-28T23:00:59.888Z,103423.49
2019-03-28T23:03:32.622Z,103416.87
2019-03-28T23:06:05.175Z,103414.16
2019-03-28T23:08:37.534Z,103414.55
2019-03-28T23:11:09.885Z,103414.41
2019-03-28T23:13:45.178Z,103416.52
2019-03-28T23:16:17.567Z,103414.16
2019-03-28T23:18:49.873Z,103405.22
2019-03-28T23:21:22.163Z,103404.20
2019-03-28T23:23:54.525Z,103402.13
2019-03-28T23:26:26.888Z,103403.56
2019-03-28T23:28:59.334Z,103408.37
2019-03-28T23:31:31.728Z,103403.84
2019-03-28T23:34:04.221Z,103403.45
2019-03-28T23:36:37.005Z,103402.44
2019-03-28T23:39:09.374Z,103398.02
2019-03-28T23:41:41.891Z,103401.38
2019-03-28T23:44:14.198Z,103391.80
2019-03-28T23:46:46.839Z,103390.26
2019-03-28T23:49:19.486Z,103391.80
2019-03-28T23:51:51.820Z,103386.50
2019-03-28T23:54:24.175Z,103391.55
2019-03-28T23:56:57.369Z,103389.23
2019-03-28T23:59:30.142Z,103378.08
